Time;durP1;ratioP1;P1;durP2;ratioP2;P2;SDS_P1;SDS_P2;PMS_P1;PMS_P2;Temp;Humidity;BMP_temperature;BMP_pressure;BME280_temperature;BME280_humidity;BME280_pressure;Samples;Min_cycle;Max_cycle;Signal;HPM_P1;HPM_P2
2023/10/09 00:00:35;;;;;;;12.18;5.80;;;13.30;99.90;;;;;;4851881;29;20042;-72
2023/10/09 00:02:53;;;;;;;14.30;6.88;;;13.30;99.90;;;;;;4851426;29;20133;-73
2023/10/09 00:05:24;;;;;;;14.75;6.25;;;13.30;99.90;;;;;;4852041;29;20049;-74
2023/10/09 00:07:55;;;;;;;14.65;6.68;;;13.30;99.90;;;;;;4850869;29;20089;-72
2023/10/09 00:10:21;;;;;;;14.93;6.38;;;13.30;99.90;;;;;;4850350;29;20205;-73
2023/10/09 00:12:49;;;;;;;14.57;6.30;;;13.30;99.90;;;;;;4851404;29;20053;-75
2023/10/09 00:15:17;;;;;;;13.60;5.78;;;13.20;99.90;;;;;;4835671;29;20052;-75
2023/10/09 00:17:46;;;;;;;14.50;5.80;;;13.20;99.90;;;;;;4851142;29;20064;-73
2023/10/09 00:20:21;;;;;;;17.95;6.32;;;13.20;99.90;;;;;;4851936;29;20353;-73
2023/10/09 00:22:47;;;;;;;14.82;6.03;;;13.10;99.90;;;;;;4851558;29;20025;-74
2023/10/09 00:25:21;;;;;;;15.85;5.68;;;13.10;99.90;;;;;;4851666;29;20090;-73
2023/10/09 00:27:51;;;;;;;15.90;6.13;;;13.10;99.90;;;;;;4851121;29;20041;-73
2023/10/09 00:30:18;;;;;;;15.15;6.53;;;13.10;99.90;;;;;;4835076;29;20101;-74
2023/10/09 06:04:54;;;;;;;27.70;9.10;;;13.40;99.90;;;;;;4853261;29;20344;-77
2023/10/09 06:07:24;;;;;;;27.70;7.68;;;13.50;99.90;;;;;;4867626;29;20215;-77
2023/10/09 06:09:52;;;;;;;25.35;8.65;;;13.50;99.90;;;;;;4840493;29;20035;-74
2023/10/09 06:17:44;;;;;;;22.85;6.63;;;13.60;99.90;;;;;;4855417;29;20116;-76
2023/10/09 06:22:56;;;;;;;23.70;7.15;;;13.80;99.90;;;;;;4837576;29;20051;-76
2023/10/09 06:25:32;;;;;;;20.83;6.50;;;13.80;99.90;;;;;;4847116;29;20026;-77
2023/10/09 06:27:59;;;;;;;21.75;6.13;;;13.90;99.90;;;;;;4852028;29;20034;-76
2023/10/09 06:30:27;;;;;;;20.08;6.50;;;14.00;99.90;;;;;;4852443;29;20055;-76
2023/10/09 06:35:32;;;;;;;29.33;7.32;;;14.20;99.90;;;;;;4853139;29;20030;-77
2023/10/09 06:43:17;;;;;;;24.42;7.85;;;14.30;99.90;;;;;;4854578;29;20282;-75
2023/10/09 06:45:54;;;;;;;23.65;7.63;;;14.40;99.90;;;;;;4855300;29;20041;-76
2023/10/09 06:59:24;;;;;;;23.98;7.97;;;14.70;99.90;;;;;;4871020;29;20021;-76
2023/10/09 07:02:25;;;;;;;23.85;6.90;;;14.70;99.90;;;;;;4871517;29;20041;-76
2023/10/09 07:07:20;;;;;;;21.98;6.28;;;14.90;99.90;;;;;;4854155;29;20357;-77
2023/10/09 07:12:34;;;;;;;23.80;7.40;;;15.10;99.20;;;;;;4871742;29;20365;-77
2023/10/09 07:16:23;;;;;;;24.00;6.85;;;15.20;99.70;;;;;;4870699;29;20330;-77
2023/10/09 07:17:52;;;;;;;22.13;6.00;;;15.30;99.70;;;;;;4854168;29;20089;-77
2023/10/09 07:20:39;;;;;;;17.27;5.35;;;15.40;99.10;;;;;;4870650;29;20060;-77
2023/10/09 07:23:14;;;;;;;15.05;4.95;;;15.50;98.00;;;;;;4869908;29;20041;-77
2023/10/09 07:25:41;;;;;;;20.63;5.68;;;15.50;97.80;;;;;;4839321;29;20037;-79
2023/10/09 07:28:18;;;;;;;17.67;4.88;;;15.60;97.40;;;;;;4870387;29;20049;-74
2023/10/09 07:30:47;;;;;;;18.77;4.53;;;15.70;97.00;;;;;;4870589;29;20060;-76
2023/10/09 07:38:11;;;;;;;15.80;4.95;;;15.90;96.50;;;;;;4870075;29;20027;-75
2023/10/09 07:46:30;;;;;;;17.30;4.97;;;16.10;95.90;;;;;;4869766;29;20074;-76
2023/10/09 07:48:56;;;;;;;16.75;4.57;;;16.20;96.20;;;;;;4853646;29;20049;-77
2023/10/09 07:51:30;;;;;;;20.25;5.60;;;16.30;95.70;;;;;;4853540;29;20104;-77
2023/10/09 07:53:57;;;;;;;20.42;5.07;;;16.30;95.60;;;;;;4869388;29;20053;-77
2023/10/09 07:56:30;;;;;;;31.25;6.57;;;16.40;95.40;;;;;;4853789;29;20093;-76
2023/10/09 07:59:00;;;;;;;24.38;7.55;;;16.50;95.50;;;;;;4870424;29;20033;-77
2023/10/09 08:01:36;;;;;;;20.67;6.47;;;16.60;94.90;;;;;;4870245;29;20033;-76
2023/10/09 08:04:10;;;;;;;22.40;5.63;;;16.70;94.80;;;;;;4869563;29;20037;-77
2023/10/09 08:06:42;;;;;;;21.42;5.57;;;16.80;94.70;;;;;;4853911;29;20037;-76
2023/10/09 08:14:59;;;;;;;16.00;4.53;;;17.30;93.70;;;;;;4841323;29;20034;-76
2023/10/09 08:20:11;;;;;;;19.77;5.15;;;17.50;93.30;;;;;;4812356;29;20043;-75
2023/10/09 08:22:43;;;;;;;16.65;5.38;;;17.60;92.80;;;;;;4863016;29;20142;-76
2023/10/09 08:25:26;;;;;;;16.65;5.10;;;17.80;92.50;;;;;;4869632;29;20078;-76
2023/10/09 08:27:57;;;;;;;15.65;4.72;;;18.00;92.20;;;;;;4870008;29;20291;-75
2023/10/09 08:33:03;;;;;;;14.07;4.85;;;18.40;92.20;;;;;;4869828;29;20322;-75
2023/10/09 08:35:48;;;;;;;19.23;4.80;;;18.60;91.90;;;;;;4870036;29;20033;-75
2023/10/09 08:38:17;;;;;;;19.58;4.65;;;18.70;91.40;;;;;;4869615;29;20053;-76
2023/10/09 08:40:45;;;;;;;;;;;18.80;90.70;;;;;;4870396;29;20219;-76
2023/10/09 08:43:18;;;;;;;15.80;4.75;;;18.90;90.60;;;;;;4869450;29;19908;-76
2023/10/09 08:45:51;;;;;;;18.92;5.53;;;19.00;90.60;;;;;;4838231;29;20030;-76
2023/10/09 08:48:18;;;;;;;16.80;4.68;;;19.00;90.00;;;;;;4857984;29;20086;-76
2023/10/09 08:50:54;;;;;;;19.38;5.03;;;19.00;89.70;;;;;;4852486;29;20109;-76
2023/10/09 08:53:21;;;;;;;16.83;3.63;;;19.00;90.00;;;;;;4869140;29;20037;-75
2023/10/09 08:55:47;;;;;;;16.05;4.22;;;19.00;89.60;;;;;;4853011;29;20311;-75
2023/10/09 08:58:36;;;;;;;18.40;4.38;;;19.10;89.70;;;;;;4869469;29;20223;-75
2023/10/09 09:01:02;;;;;;;17.45;4.63;;;19.20;88.50;;;;;;4869338;29;20037;-76
2023/10/09 09:03:43;;;;;;;22.50;4.68;;;19.30;89.40;;;;;;4860902;29;20326;-75
2023/10/09 09:06:10;;;;;;;32.30;4.97;;;19.30;88.40;;;;;;4850981;29;20030;-76
2023/10/09 09:08:39;;;;;;;16.92;5.47;;;19.40;89.10;;;;;;4834898;29;20030;-75
2023/10/09 09:11:11;;;;;;;23.67;4.53;;;19.50;88.30;;;;;;4834877;29;20026;-75
2023/10/09 09:13:50;;;;;;;19.10;4.50;;;19.50;88.10;;;;;;4866272;29;20066;-75
2023/10/09 09:16:21;;;;;;;18.95;4.72;;;19.60;86.90;;;;;;4868859;29;20425;-75
2023/10/09 09:21:40;;;;;;;21.02;5.32;;;19.70;87.20;;;;;;4869792;29;20049;-75
2023/10/09 09:24:26;;;;;;;15.48;4.75;;;19.90;86.90;;;;;;4868671;29;20055;-76
2023/10/09 09:26:59;;;;;;;18.58;6.30;;;20.10;86.50;;;;;;4869777;29;20142;-75
2023/10/09 09:29:38;;;;;;;20.63;5.50;;;20.30;85.70;;;;;;4869320;29;20068;-75
2023/10/09 09:32:19;;;;;;;22.73;6.88;;;20.50;85.00;;;;;;4837012;29;20072;-75
2023/10/09 09:35:04;;;;;;;35.75;6.72;;;20.60;84.30;;;;;;4869108;29;20037;-76
2023/10/09 09:38:02;;;;;;;34.30;6.88;;;21.00;84.40;;;;;;4853135;29;20384;-77
2023/10/09 09:43:04;;;;;;;27.00;6.82;;;21.30;82.40;;;;;;4837860;29;20038;-76
2023/10/09 09:45:32;;;;;;;23.23;6.10;;;21.40;82.10;;;;;;4854414;29;20105;-76
2023/10/09 09:48:10;;;;;;;24.88;6.65;;;21.60;81.60;;;;;;4866481;29;20033;-76
2023/10/09 09:50:43;;;;;;;24.38;6.65;;;21.70;81.20;;;;;;4863353;29;20029;-76
2023/10/09 09:53:18;;;;;;;16.70;5.75;;;21.70;80.70;;;;;;4853452;29;20034;-76
2023/10/09 09:55:55;;;;;;;21.83;6.05;;;21.90;80.40;;;;;;4853834;29;20230;-76
2023/10/09 09:58:23;;;;;;;15.68;5.38;;;22.00;80.20;;;;;;4871466;29;20033;-76
2023/10/09 10:00:54;;;;;;;18.98;5.05;;;22.20;79.40;;;;;;4855729;29;20122;-77
2023/10/09 10:03:33;;;;;;;22.58;5.35;;;22.10;79.70;;;;;;4863965;29;20143;-77
2023/10/09 10:06:04;;;;;;;15.65;5.05;;;22.30;78.80;;;;;;4855119;29;20036;-76
2023/10/09 10:08:32;;;;;;;16.80;5.53;;;22.50;78.50;;;;;;4872622;29;20146;-76
2023/10/09 10:11:04;;;;;;;18.00;5.32;;;22.70;78.30;;;;;;4871753;29;20037;-77
2023/10/09 10:13:43;;;;;;;17.85;5.28;;;22.70;78.10;;;;;;4848692;29;20259;-76
2023/10/09 10:16:19;;;;;;;22.23;6.75;;;22.90;77.90;;;;;;4853003;29;20158;-76
2023/10/09 10:19:21;;;;;;;24.33;7.43;;;23.00;77.30;;;;;;4853477;29;20029;-76
2023/10/09 10:21:52;;;;;;;23.17;6.97;;;23.10;77.70;;;;;;4814276;29;20034;-76
2023/10/09 10:27:27;;;;;;;23.48;6.70;;;23.40;78.80;;;;;;4836703;29;20034;-77
2023/10/09 10:30:23;;;;;;;26.38;8.05;;;23.50;77.30;;;;;;4827161;29;20030;-76
2023/10/09 10:32:52;;;;;;;26.88;7.90;;;23.60;76.90;;;;;;4871759;29;20045;-76
2023/10/09 10:38:14;;;;;;;29.23;7.90;;;23.80;76.60;;;;;;4870842;29;20033;-75
2023/10/09 10:40:57;;;;;;;21.80;6.53;;;23.70;76.80;;;;;;4871808;29;20033;-76
2023/10/09 10:48:59;;;;;;;22.25;6.75;;;23.80;75.00;;;;;;4871522;29;20109;-77
2023/10/09 10:51:34;;;;;;;18.95;6.50;;;23.80;76.10;;;;;;4870953;29;20041;-78
2023/10/09 10:54:26;;;;;;;25.90;7.68;;;23.80;76.60;;;;;;4870948;29;20049;-76
2023/10/09 10:56:48;;;;;;;23.42;7.30;;;23.60;77.40;;;;;;4854933;29;20048;-77
2023/10/09 10:59:22;;;;;;;23.63;8.00;;;23.50;78.30;;;;;;4871376;29;20045;-77
2023/10/09 11:02:13;;;;;;;24.77;6.90;;;23.50;78.50;;;;;;4871568;29;20033;-75
2023/10/09 11:04:44;;;;;;;25.92;7.40;;;23.40;78.00;;;;;;4854806;29;20086;-77
2023/10/09 11:07:16;;;;;;;28.15;7.22;;;23.40;78.20;;;;;;4854427;29;20227;-75
2023/10/09 11:10:08;;;;;;;24.33;6.80;;;23.40;78.10;;;;;;4870194;29;20021;-77
2023/10/09 11:15:44;;;;;;;27.75;7.13;;;23.80;77.20;;;;;;4814218;29;20088;-77
2023/10/09 11:18:20;;;;;;;22.52;6.65;;;24.20;76.40;;;;;;4814149;29;20224;-75
2023/10/09 11:21:04;;;;;;;27.77;6.72;;;24.50;75.10;;;;;;4799222;29;20038;-76
2023/10/09 11:23:47;;;;;;;26.38;7.22;;;24.80;76.10;;;;;;4814507;29;20055;-75
2023/10/09 11:29:52;;;;;;;27.55;7.20;;;25.50;73.20;;;;;;4814443;29;20031;-76
2023/10/09 11:32:14;;;;;;;24.35;6.70;;;25.50;72.80;;;;;;4795719;30;20062;-77
2023/10/09 11:34:45;;;;;;;28.58;7.30;;;25.30;73.30;;;;;;4795941;30;20047;-77
2023/10/09 11:37:11;;;;;;;35.67;7.82;;;25.10;73.70;;;;;;4796070;29;20120;-77
2023/10/09 11:39:50;;;;;;;22.33;6.72;;;24.80;73.80;;;;;;4815430;29;20035;-76
2023/10/09 11:45:54;;;;;;;26.87;5.97;;;24.40;74.30;;;;;;4815802;29;20050;-77
2023/10/09 11:47:58;;;;;;;24.13;5.47;;;24.00;73.30;;;;;;4793911;29;20050;-76
2023/10/09 11:50:43;;;;;;;24.40;6.43;;;23.90;73.60;;;;;;4811607;29;20087;-76
2023/10/09 11:56:09;;;;;;;23.88;6.00;;;23.60;74.70;;;;;;4845846;29;20080;-76
2023/10/09 11:58:39;;;;;;;29.20;7.78;;;23.60;76.50;;;;;;4837650;29;20211;-76
2023/10/09 12:01:17;;;;;;;31.90;8.88;;;23.60;78.60;;;;;;4854018;29;20266;-77
2023/10/09 12:03:49;;;;;;;23.30;6.82;;;23.70;81.00;;;;;;4853594;29;20038;-76
2023/10/09 12:06:19;;;;;;;20.38;6.15;;;23.80;77.90;;;;;;4870774;29;20119;-74
2023/10/09 12:08:48;;;;;;;20.98;6.03;;;23.80;76.50;;;;;;4870697;29;20041;-75
2023/10/09 12:11:22;;;;;;;18.95;5.95;;;23.90;77.50;;;;;;4869871;29;20038;-76
2023/10/09 12:13:48;;;;;;;15.23;6.07;;;23.90;77.30;;;;;;4861402;29;20216;-76
2023/10/09 12:16:15;;;;;;;21.52;5.70;;;24.00;76.90;;;;;;4852044;29;20063;-74
2023/10/09 12:18:52;;;;;;;18.92;5.78;;;24.20;77.20;;;;;;4852085;29;20032;-79
2023/10/09 12:21:20;;;;;;;22.02;7.28;;;24.50;76.80;;;;;;4852085;29;20053;-78
2023/10/09 12:23:47;;;;;;;19.65;6.55;;;25.00;75.30;;;;;;4852205;29;20052;-78
2023/10/09 12:27:11;;;;;;;24.55;6.35;;;25.40;74.90;;;;;;4835790;29;20089;-78
2023/10/09 12:29:37;;;;;;;23.90;7.40;;;25.90;74.70;;;;;;4824441;29;20029;-80
2023/10/09 12:32:10;;;;;;;24.80;6.55;;;26.40;73.50;;;;;;4839285;29;20327;-78
2023/10/09 12:34:39;;;;;;;23.48;6.32;;;27.30;71.30;;;;;;4855145;29;20244;-78
2023/10/09 12:37:08;;;;;;;22.75;5.88;;;27.40;70.80;;;;;;4838625;29;20025;-79
2023/10/09 12:39:40;;;;;;;25.52;6.15;;;28.30;69.00;;;;;;4840160;29;20037;-77
2023/10/09 12:42:09;;;;;;;26.13;6.45;;;29.00;66.80;;;;;;4853681;29;20033;-77
2023/10/09 12:44:42;;;;;;;20.70;6.03;;;29.30;63.50;;;;;;4853774;29;20311;-78
2023/10/09 12:47:12;;;;;;;19.45;7.18;;;29.50;62.70;;;;;;4869316;29;20211;-76
2023/10/09 12:49:41;;;;;;;16.55;6.60;;;29.40;63.20;;;;;;4853514;29;20026;-79
2023/10/09 12:52:16;;;;;;;17.58;5.20;;;29.30;64.50;;;;;;4869217;29;20025;-77
2023/10/09 12:54:48;;;;;;;26.20;6.63;;;29.10;59.40;;;;;;4869589;29;20050;-79
2023/10/09 12:57:14;;;;;;;20.50;6.38;;;29.00;61.10;;;;;;4838019;29;20078;-77
2023/10/09 12:59:45;;;;;;;21.33;6.78;;;29.20;61.10;;;;;;4838464;29;20316;-78
2023/10/09 13:02:50;;;;;;;28.95;7.03;;;29.00;61.30;;;;;;4869359;29;20026;-79
2023/10/09 13:05:10;;;;;;;24.52;7.00;;;28.70;62.20;;;;;;4846542;29;20044;-80
2023/10/09 13:07:36;;;;;;;20.55;5.70;;;28.40;62.50;;;;;;4851285;29;20042;-78
2023/10/09 13:10:08;;;;;;;25.15;5.72;;;28.20;61.90;;;;;;4835212;29;20041;-78
2023/10/09 13:12:41;;;;;;;26.33;6.53;;;28.30;62.30;;;;;;4834718;29;20037;-78
2023/10/09 13:15:09;;;;;;;16.05;4.53;;;28.40;60.80;;;;;;4870555;29;20334;-79
2023/10/09 13:17:36;;;;;;;17.92;5.00;;;29.00;61.00;;;;;;4841542;29;20053;-79
2023/10/09 13:20:12;;;;;;;19.70;5.10;;;29.70;57.70;;;;;;4856808;29;20030;-79
2023/10/09 13:22:39;;;;;;;20.45;6.35;;;30.10;57.00;;;;;;4873399;29;20097;-78
2023/10/09 13:25:15;;;;;;;17.15;5.35;;;30.30;56.50;;;;;;4841467;29;20029;-77
2023/10/09 13:27:42;;;;;;;14.18;5.65;;;30.10;57.10;;;;;;4873072;29;20098;-80
2023/10/09 13:30:09;;;;;;;10.77;5.10;;;30.90;53.50;;;;;;4856236;29;20037;-79
2023/10/09 13:32:36;;;;;;;11.40;5.07;;;32.20;44.90;;;;;;4841412;29;20028;-79
2023/10/09 13:35:03;;;;;;;11.43;5.15;;;33.90;43.60;;;;;;4873000;29;20033;-78
2023/10/09 13:37:31;;;;;;;11.40;5.65;;;35.10;43.10;;;;;;4841023;29;20044;-79
2023/10/09 13:40:08;;;;;;;10.73;5.50;;;35.90;40.90;;;;;;4841577;29;20078;-79
2023/10/09 13:42:35;;;;;;;10.63;5.35;;;36.20;39.90;;;;;;4856360;29;20026;-80
2023/10/09 13:45:15;;;;;;;10.17;6.13;;;36.70;38.40;;;;;;4872953;29;20383;-79
2023/10/09 13:48:11;;;;;;;11.35;5.22;;;37.10;36.50;;;;;;4859790;29;20070;-78
2023/10/09 13:50:42;;;;;;;8.45;6.07;;;37.30;37.00;;;;;;4870765;29;20041;-79
2023/10/09 13:53:11;;;;;;;9.18;6.30;;;37.30;35.40;;;;;;4872025;29;20037;-78
2023/10/09 13:55:43;;;;;;;10.90;6.10;;;37.60;34.70;;;;;;4852203;29;20061;-77
2023/10/09 13:58:13;;;;;;;9.68;5.60;;;37.70;34.60;;;;;;4860170;29;20183;-77
2023/10/09 14:00:42;;;;;;;10.15;5.55;;;37.60;33.80;;;;;;4840542;29;20050;-76
2023/10/09 14:03:19;;;;;;;8.98;5.68;;;38.10;33.80;;;;;;4870732;29;20223;-76
2023/10/09 14:05:54;;;;;;;11.77;5.80;;;38.30;33.60;;;;;;4856044;29;20087;-76
2023/10/09 14:08:25;;;;;;;8.68;5.63;;;37.40;33.00;;;;;;4871727;29;20342;-77
2023/10/09 14:10:51;;;;;;;7.95;5.65;;;36.50;33.60;;;;;;4840376;29;20108;-76
2023/10/09 14:13:25;;;;;;;10.00;5.60;;;36.30;34.50;;;;;;4855322;29;20028;-75
2023/10/09 14:15:54;;;;;;;10.43;5.95;;;36.20;34.00;;;;;;4855658;29;20032;-77
2023/10/09 14:18:21;;;;;;;9.88;5.13;;;35.60;34.70;;;;;;4872160;29;20057;-77
2023/10/09 14:20:46;;;;;;;11.43;5.40;;;34.60;35.20;;;;;;4872555;29;20040;-78
2023/10/09 14:23:20;;;;;;;10.32;5.53;;;33.90;35.10;;;;;;4871947;29;20053;-75
2023/10/09 14:25:50;;;;;;;8.18;5.00;;;32.70;36.00;;;;;;4872982;29;20041;-76
2023/10/09 14:28:18;;;;;;;11.57;5.07;;;32.10;36.80;;;;;;4871102;29;20036;-75
2023/10/09 14:30:48;;;;;;;11.15;5.70;;;31.40;37.30;;;;;;4871973;29;20142;-73
2023/10/09 14:33:22;;;;;;;10.30;5.40;;;30.80;37.70;;;;;;4871298;29;20096;-75
2023/10/09 14:35:48;;;;;;;8.07;5.00;;;30.40;37.10;;;;;;4871699;29;20033;-74
2023/10/09 14:38:15;;;;;;;8.88;5.35;;;30.30;38.20;;;;;;4870067;29;20045;-74
2023/10/09 14:40:47;;;;;;;9.95;5.82;;;30.10;38.30;;;;;;4870641;29;20025;-75
2023/10/09 14:43:20;;;;;;;12.45;5.68;;;29.70;38.20;;;;;;4871006;29;20025;-73
2023/10/09 14:45:49;;;;;;;10.43;5.72;;;29.50;39.00;;;;;;4871866;29;20034;-74
2023/10/09 14:48:18;;;;;;;11.68;5.70;;;29.40;39.80;;;;;;4854505;29;20073;-74
2023/10/09 14:50:53;;;;;;;10.80;5.35;;;29.20;39.50;;;;;;4871232;29;20049;-74
2023/10/09 14:53:26;;;;;;;11.45;5.90;;;28.80;39.50;;;;;;4870676;29;20292;-73
2023/10/09 14:56:01;;;;;;;9.98;5.15;;;28.40;39.90;;;;;;4871847;29;20061;-74
2023/10/09 14:58:29;;;;;;;10.90;5.47;;;28.30;40.80;;;;;;4871381;29;20033;-75
2023/10/09 15:00:55;;;;;;;11.88;5.88;;;28.20;40.70;;;;;;4871592;29;20045;-74
2023/10/09 15:03:22;;;;;;;10.02;5.05;;;28.00;41.50;;;;;;4871036;29;20090;-74
2023/10/09 15:05:49;;;;;;;15.63;6.47;;;28.00;42.10;;;;;;4871180;29;20094;-75
2023/10/09 15:08:15;;;;;;;10.00;4.97;;;28.00;41.90;;;;;;4870587;29;20064;-72
2023/10/09 15:10:55;;;;;;;13.68;5.57;;;28.10;41.70;;;;;;4854559;29;20037;-74
2023/10/09 15:13:27;;;;;;;11.38;5.30;;;28.60;41.80;;;;;;4864890;29;20026;-73
2023/10/09 15:15:54;;;;;;;9.32;5.20;;;28.70;42.10;;;;;;4852579;29;20079;-74
2023/10/09 15:18:21;;;;;;;10.75;5.55;;;28.60;43.60;;;;;;4852247;29;20034;-75
2023/10/09 15:20:48;;;;;;;9.32;5.20;;;28.40;41.90;;;;;;4852894;29;20026;-76
2023/10/09 15:23:14;;;;;;;10.93;5.20;;;28.10;43.60;;;;;;4852207;29;20038;-76
2023/10/09 15:25:42;;;;;;;11.07;5.10;;;27.90;43.20;;;;;;4864398;29;20129;-76
2023/10/09 15:28:09;;;;;;;9.88;5.32;;;27.70;43.40;;;;;;4861738;29;20030;-75
2023/10/09 15:30:37;;;;;;;10.82;5.35;;;27.40;43.50;;;;;;4870352;29;21889;-75
2023/10/09 15:33:08;;;;;;;15.82;5.72;;;27.40;46.30;;;;;;4872386;29;20252;-74
2023/10/09 15:35:34;;;;;;;12.57;6.05;;;27.30;46.10;;;;;;4889853;29;20068;-75
2023/10/09 15:38:03;;;;;;;11.93;5.47;;;27.20;46.20;;;;;;4872820;29;20060;-74
2023/10/09 15:40:36;;;;;;;12.63;5.75;;;27.00;47.40;;;;;;4861252;29;20025;-77
2023/10/09 15:43:04;;;;;;;10.95;5.55;;;26.90;46.30;;;;;;4866608;29;20041;-73
2023/10/09 15:45:31;;;;;;;12.73;6.57;;;26.70;46.50;;;;;;4869011;29;20034;-76
2023/10/09 15:47:59;;;;;;;14.90;7.35;;;26.40;47.60;;;;;;4869777;29;20211;-75
2023/10/09 15:50:25;;;;;;;12.80;6.32;;;26.10;48.80;;;;;;4869875;29;20045;-76
2023/10/09 15:52:55;;;;;;;14.50;7.07;;;25.90;49.60;;;;;;4870770;29;20064;-76
2023/10/09 15:55:24;;;;;;;14.60;6.70;;;25.70;50.00;;;;;;4869788;29;20042;-75
2023/10/09 15:57:54;;;;;;;16.27;8.95;;;25.50;50.00;;;;;;4853783;29;20046;-75
2023/10/09 16:00:28;;;;;;;17.73;9.77;;;25.40;50.90;;;;;;4853321;29;20030;-74
2023/10/09 16:02:54;;;;;;;13.55;9.40;;;25.30;51.60;;;;;;4866482;29;20033;-75
2023/10/09 16:05:25;;;;;;;15.70;10.52;;;25.20;51.60;;;;;;4870151;29;20253;-76
2023/10/09 16:07:54;;;;;;;15.18;9.77;;;25.00;51.20;;;;;;4870443;29;20033;-79
2023/10/09 16:10:21;;;;;;;16.38;9.65;;;24.90;52.40;;;;;;4870002;29;20022;-80
2023/10/09 16:12:47;;;;;;;13.63;7.90;;;24.70;52.10;;;;;;4869820;29;20061;-77
2023/10/09 16:15:18;;;;;;;14.02;7.68;;;24.60;52.50;;;;;;4868605;29;20025;-77
2023/10/09 16:17:49;;;;;;;12.98;7.47;;;24.40;52.90;;;;;;4868967;29;20306;-76
2023/10/09 16:20:21;;;;;;;13.93;7.00;;;24.20;53.30;;;;;;4838080;29;20066;-75
2023/10/09 16:22:49;;;;;;;12.60;6.70;;;24.00;53.50;;;;;;4870542;29;20029;-75
2023/10/09 16:25:17;;;;;;;16.73;6.90;;;23.90;54.20;;;;;;4868894;29;20133;-75
2023/10/09 16:27:46;;;;;;;17.52;6.93;;;23.80;54.50;;;;;;4870062;29;20303;-76
2023/10/09 16:30:20;;;;;;;12.20;6.68;;;23.70;54.60;;;;;;4870121;29;20018;-75
2023/10/09 16:32:47;;;;;;;11.88;6.70;;;23.50;54.90;;;;;;4869940;29;20033;-75
2023/10/09 16:35:13;;;;;;;14.32;7.00;;;23.20;55.00;;;;;;4853428;29;20062;-77
2023/10/09 16:37:41;;;;;;;13.55;6.53;;;23.00;55.80;;;;;;4869986;29;20029;-75
2023/10/09 16:40:11;;;;;;;13.45;6.47;;;22.90;55.80;;;;;;4868666;29;20254;-74
2023/10/09 16:42:49;;;;;;;14.55;7.10;;;22.70;56.90;;;;;;4869545;29;20033;-77
2023/10/09 16:45:15;;;;;;;13.43;6.85;;;22.60;58.00;;;;;;4837498;29;20044;-71
2023/10/09 16:47:47;;;;;;;12.18;6.28;;;22.40;58.90;;;;;;4869749;29;20038;-75
2023/10/09 16:50:15;;;;;;;12.65;5.78;;;22.10;58.50;;;;;;4870524;29;20315;-73
2023/10/09 16:52:45;;;;;;;14.80;6.03;;;21.90;58.40;;;;;;4873757;29;20030;-74
2023/10/09 16:55:11;;;;;;;14.25;6.80;;;21.80;58.90;;;;;;4873350;29;20041;-77
2023/10/09 16:57:39;;;;;;;16.55;6.85;;;21.70;60.70;;;;;;4841205;29;20034;-75
2023/10/09 17:00:34;;;;;;;15.57;6.63;;;21.60;60.20;;;;;;4873704;29;20029;-75
2023/10/09 17:03:06;;;;;;;11.68;5.97;;;21.60;60.00;;;;;;4856824;29;20025;-75
2023/10/09 17:08:19;;;;;;;16.52;6.20;;;21.30;61.50;;;;;;4873092;29;20359;-74
2023/10/09 17:10:45;;;;;;;17.13;7.28;;;21.10;61.40;;;;;;4872992;29;20073;-74
2023/10/09 17:13:13;;;;;;;15.00;6.82;;;21.00;62.30;;;;;;4857399;29;20021;-75
2023/10/09 17:15:38;;;;;;;13.87;6.33;;;20.90;62.20;;;;;;4873491;29;20051;-74
2023/10/09 17:18:06;;;;;;;14.85;5.75;;;20.80;62.50;;;;;;4888476;29;20319;-75
2023/10/09 17:20:38;;;;;;;13.45;5.68;;;20.70;62.80;;;;;;4872517;29;20032;-75
2023/10/09 17:23:04;;;;;;;19.02;6.00;;;20.70;63.00;;;;;;4872819;29;20051;-75
2023/10/09 17:25:34;;;;;;;14.77;5.80;;;20.60;63.80;;;;;;4870753;29;20089;-74
2023/10/09 17:27:59;;;;;;;16.75;5.90;;;20.60;62.70;;;;;;4872582;29;20029;-75
2023/10/09 17:30:26;;;;;;;17.50;7.50;;;20.50;64.10;;;;;;4880959;29;20040;-76
2023/10/09 17:32:54;;;;;;;16.63;8.15;;;20.40;65.20;;;;;;4872554;29;20143;-75
2023/10/09 17:35:20;;;;;;;17.05;9.38;;;20.30;65.70;;;;;;4871980;29;20018;-75
2023/10/09 17:37:46;;;;;;;16.13;7.70;;;20.20;67.40;;;;;;4872749;29;20057;-75
2023/10/09 17:40:18;;;;;;;17.42;8.40;;;20.00;66.20;;;;;;4860981;29;20033;-76
2023/10/09 17:42:44;;;;;;;19.25;8.27;;;19.90;66.70;;;;;;4854338;29;20092;-77
2023/10/09 17:45:13;;;;;;;14.57;7.88;;;19.80;67.60;;;;;;4871054;29;20025;-75
2023/10/09 17:47:39;;;;;;;16.73;7.47;;;19.70;68.00;;;;;;4872706;29;20045;-75
2023/10/09 17:50:12;;;;;;;16.05;6.28;;;19.50;67.80;;;;;;4856252;29;20089;-74
2023/10/09 17:52:38;;;;;;;17.50;6.00;;;19.50;69.10;;;;;;4872095;29;20323;-75
2023/10/09 17:55:11;;;;;;;16.33;6.13;;;19.40;69.20;;;;;;4840480;29;20106;-76
2023/10/09 17:57:41;;;;;;;15.98;6.20;;;19.30;69.90;;;;;;4855808;29;20135;-76
2023/10/09 18:00:21;;;;;;;17.35;6.18;;;19.20;70.00;;;;;;4871071;29;20041;-76
2023/10/09 18:02:51;;;;;;;15.93;6.32;;;19.20;70.50;;;;;;4867207;29;20021;-76
2023/10/09 18:05:19;;;;;;;14.13;7.10;;;19.20;71.00;;;;;;4836591;29;20041;-76
2023/10/09 18:07:45;;;;;;;15.93;6.20;;;19.10;71.00;;;;;;4867631;29;20036;-75
2023/10/09 18:10:13;;;;;;;21.05;7.28;;;19.10;71.70;;;;;;4872180;29;20307;-74
2023/10/09 18:12:39;;;;;;;15.60;6.68;;;19.00;72.50;;;;;;4871556;29;20046;-76
2023/10/09 18:15:05;;;;;;;16.27;6.90;;;18.90;72.60;;;;;;4854017;29;20069;-75
2023/10/09 18:17:34;;;;;;;19.70;7.95;;;18.80;72.60;;;;;;4851582;29;20052;-75
2023/10/09 18:20:01;;;;;;;17.77;7.28;;;18.80;72.90;;;;;;4872780;29;20053;-76
2023/10/09 18:22:28;;;;;;;15.55;7.25;;;18.70;72.60;;;;;;4871621;29;20192;-77
2023/10/09 18:24:55;;;;;;;15.87;6.67;;;18.70;73.10;;;;;;4855926;29;20025;-77
2023/10/09 18:27:22;;;;;;;14.43;6.43;;;18.70;73.00;;;;;;4871513;29;20334;-77
2023/10/09 18:29:51;;;;;;;15.00;6.93;;;18.60;72.80;;;;;;4855499;29;20112;-77
2023/10/09 18:32:17;;;;;;;15.52;7.25;;;18.60;73.20;;;;;;4871722;29;20360;-77
2023/10/09 18:34:42;;;;;;;15.65;6.43;;;18.60;72.90;;;;;;4872115;29;20030;-78
2023/10/09 18:37:08;;;;;;;13.75;6.82;;;18.60;73.10;;;;;;4871767;29;20025;-76
2023/10/09 18:39:38;;;;;;;15.50;6.97;;;18.70;73.10;;;;;;4871098;29;20025;-76
2023/10/09 18:42:07;;;;;;;19.42;8.45;;;18.70;73.40;;;;;;4872069;29;20033;-76
2023/10/09 18:44:34;;;;;;;23.92;8.95;;;18.70;74.30;;;;;;4871751;29;20274;-77
2023/10/09 18:47:00;;;;;;;22.10;10.27;;;18.70;74.50;;;;;;4869394;29;20096;-77
2023/10/09 18:49:28;;;;;;;21.77;9.82;;;18.60;74.80;;;;;;4854963;29;20029;-76
2023/10/09 18:51:55;;;;;;;21.67;8.87;;;18.60;75.00;;;;;;4872073;29;20041;-78
2023/10/09 18:54:22;;;;;;;19.58;8.95;;;18.50;75.70;;;;;;4861927;29;20474;-79
2023/10/09 18:56:48;;;;;;;23.42;9.27;;;18.50;76.50;;;;;;4877228;29;20037;-77
2023/10/09 18:59:14;;;;;;;17.40;8.43;;;18.40;76.80;;;;;;4873823;29;20032;-78
2023/10/09 19:01:40;;;;;;;19.77;7.38;;;18.40;77.30;;;;;;4848842;29;20143;-77
2023/10/09 19:04:09;;;;;;;17.77;7.43;;;18.40;77.50;;;;;;4862635;29;20082;-76
2023/10/09 19:06:38;;;;;;;22.98;7.45;;;18.30;77.60;;;;;;4852510;29;20323;-77
2023/10/09 19:09:05;;;;;;;20.15;8.23;;;18.30;78.00;;;;;;4869287;29;20049;-78
2023/10/09 19:11:32;;;;;;;20.15;7.53;;;18.30;78.10;;;;;;4859295;29;20041;-77
2023/10/09 19:13:58;;;;;;;16.27;7.00;;;18.20;77.70;;;;;;4863941;29;20324;-78
2023/10/09 19:16:24;;;;;;;18.05;7.57;;;18.30;77.60;;;;;;4849078;29;20024;-76
2023/10/09 19:18:50;;;;;;;18.25;7.57;;;18.20;78.20;;;;;;4864562;29;20044;-77
2023/10/09 19:21:16;;;;;;;21.58;7.15;;;18.30;78.70;;;;;;4855238;29;20320;-77
2023/10/09 19:23:46;;;;;;;19.42;7.38;;;18.20;78.20;;;;;;4852377;29;20067;-77
2023/10/09 19:26:15;;;;;;;16.88;7.30;;;18.20;79.20;;;;;;4856570;29;20022;-76
2023/10/09 19:28:43;;;;;;;19.42;8.07;;;18.20;79.30;;;;;;4876706;29;20090;-77
2023/10/09 19:31:12;;;;;;;16.58;7.50;;;18.20;79.80;;;;;;4854255;29;20147;-76
2023/10/09 19:33:41;;;;;;;17.58;7.05;;;18.20;79.80;;;;;;4854064;29;20033;-77
2023/10/09 19:36:11;;;;;;;23.25;7.72;;;18.10;80.00;;;;;;4854766;29;20082;-76
2023/10/09 19:38:50;;;;;;;19.45;7.40;;;18.00;79.40;;;;;;4870587;29;20021;-77
2023/10/09 19:41:16;;;;;;;15.27;6.10;;;18.10;79.60;;;;;;4870881;29;20102;-77
2023/10/09 19:43:42;;;;;;;17.27;7.00;;;18.10;79.40;;;;;;4870293;29;20037;-77
2023/10/09 19:46:08;;;;;;;16.48;7.20;;;18.00;78.90;;;;;;4871136;29;20021;-77
2023/10/09 19:48:34;;;;;;;14.18;6.97;;;18.10;79.50;;;;;;4870530;29;20041;-78
2023/10/09 19:51:05;;;;;;;19.35;7.32;;;18.00;79.90;;;;;;4869719;29;20049;-77
2023/10/09 19:53:31;;;;;;;17.98;6.70;;;18.00;81.10;;;;;;4854204;29;20021;-77
2023/10/09 19:55:57;;;;;;;16.25;6.50;;;18.00;80.10;;;;;;4874772;29;20131;-77